Time;durP1;ratioP1;P1;durP2;ratioP2;P2;SDS_P1;SDS_P2;PMS_P1;PMS_P2;Temp;Humidity;BMP_temperature;BMP_pressure;BME280_temperature;BME280_humidity;BME280_pressure;Samples;Min_cycle;Max_cycle;Signal;HPM_P1;HPM_P2
2021/07/02 00:02:39;;;;;;;;;;;14.20;99.90;;;13.20;100.00;95859.19;10417032;28;2230;-80
2021/07/02 00:07:42;;;;;;;;;;;14.20;99.90;;;13.21;100.00;95852.75;10407018;28;1674;-79
2021/07/02 00:12:44;;;;;;;;;;;14.20;99.90;;;13.27;99.86;95854.28;10413074;28;2126;-79
2021/07/02 00:17:47;;;;;;;;;;;14.30;99.90;;;13.38;99.48;95846.88;10406959;28;2214;-80
2021/07/02 00:22:50;;;;;;;;;;;14.30;99.90;;;13.31;98.37;95849.94;10396207;28;2392;-79
2021/07/02 00:27:53;;;;;;;;;;;14.40;99.90;;;13.29;98.72;95849.38;10401454;28;2150;-79
2021/07/02 00:33:09;;;;;;;;;;;14.30;99.90;;;13.34;99.07;95845.84;10280731;28;2148;-78
2021/07/02 00:38:12;;;;;;;;;;;14.30;99.90;;;13.35;97.70;95840.13;10281686;28;2295;-79
2021/07/02 00:43:15;;;;;;;;;;;14.40;99.90;;;13.33;98.09;95845.03;10288419;28;2145;-80
2021/07/02 00:48:17;;;;;;;;;;;14.40;99.90;;;13.30;98.87;95840.22;10297881;28;2224;-77
2021/07/02 00:53:22;;;;;;;;;;;14.40;99.90;;;13.30;98.00;95845.63;10289727;28;1990;-77
2021/07/02 00:58:25;;;;;;;;;;;14.30;99.90;;;13.25;97.18;95838.38;10288846;28;2129;-79
2021/07/02 01:03:27;;;;;;;;;;;14.30;99.90;;;13.27;96.92;95832.69;10342140;28;2104;-79
2021/07/02 01:08:30;;;;;;;;;;;14.30;99.90;;;13.21;97.41;95823.03;10412095;28;1677;-79
2021/07/02 01:13:33;;;;;;;;;;;14.30;99.90;;;13.16;97.48;95818.47;10397959;28;2155;-79
2021/07/02 01:18:35;;;;;;;;;;;14.20;99.90;;;13.21;98.13;95831.16;10397731;28;2071;-79
2021/07/02 01:23:38;;;;;;;;;;;14.20;99.90;;;13.25;98.04;95826.78;10403677;28;1698;-78
2021/07/02 01:28:41;;;;;;;;;;;14.20;99.90;;;13.27;98.64;95823.78;10402706;28;1273;-78
2021/07/02 01:33:43;;;;;;;;;;;14.30;99.90;;;13.21;98.40;95831.16;10396353;28;2139;-78
2021/07/02 01:38:46;;;;;;;;;;;14.30;99.90;;;13.20;99.17;95816.84;10402244;28;2167;-79
2021/07/02 01:43:49;;;;;;;;;;;14.20;99.90;;;13.19;99.70;95823.31;10409065;28;2090;-80
2021/07/02 01:48:51;;;;;;;;;;;14.20;99.90;;;13.19;99.05;95815.22;10401999;28;2087;-80
2021/07/02 01:53:54;;;;;;;;;;;14.20;99.90;;;13.15;99.79;95816.06;10399381;28;2154;-78
2021/07/02 01:58:57;;;;;;;;;;;14.20;99.90;;;13.03;100.00;95811.06;10399936;28;2063;-79
2021/07/02 02:04:01;;;;;;;;;;;14.10;99.90;;;12.94;100.00;95815.50;10397429;28;2027;-79
2021/07/02 02:09:03;;;;;;;;;;;14.10;99.90;;;12.84;100.00;95811.03;10386051;28;2222;-79
2021/07/02 02:14:10;;;;;;;;;;;14.00;99.90;;;12.74;100.00;95805.75;10382944;28;2182;-78
2021/07/02 02:19:13;;;;;;;;;;;13.90;99.90;;;12.70;100.00;95810.91;10394427;28;2086;-79
2021/07/02 02:24:16;;;;;;;;;;;13.80;99.90;;;12.63;100.00;95813.13;10403797;28;2047;-78
2021/07/02 02:29:18;;;;;;;;;;;13.80;99.90;;;12.63;100.00;95809.63;10402280;28;2157;-79
2021/07/02 02:34:21;;;;;;;;;;;13.70;99.90;;;12.63;100.00;95810.44;10388860;28;2092;-79
2021/07/02 02:39:24;;;;;;;;;;;13.70;99.90;;;12.64;100.00;95806.66;10394152;28;2035;-77
2021/07/02 02:44:26;;;;;;;;;;;13.70;99.90;;;12.63;100.00;95805.03;10389870;28;2047;-79
2021/07/02 02:49:29;;;;;;;;;;;13.70;99.90;;;12.64;100.00;95816.63;10380217;28;2110;-77
2021/07/02 02:54:31;;;;;;;;;;;13.70;99.90;;;12.62;100.00;95813.44;10391366;28;2152;-78
2021/07/02 02:59:34;;;;;;;;;;;13.70;99.90;;;12.69;100.00;95808.50;10405332;28;2011;-78
2021/07/02 03:04:37;;;;;;;;;;;13.70;99.90;;;12.69;100.00;95811.19;10410795;28;2120;-78
2021/07/02 03:09:40;;;;;;;;;;;13.80;99.90;;;12.70;100.00;95810.09;10391826;28;1383;-82
2021/07/02 03:14:42;;;;;;;;;;;13.80;99.90;;;12.72;100.00;95818.69;10406157;28;2207;-78
2021/07/02 03:19:45;;;;;;;;;;;13.80;99.90;;;12.76;100.00;95825.13;10412362;28;2127;-78
2021/07/02 03:24:48;;;;;;;;;;;13.80;99.90;;;12.83;100.00;95817.50;10395050;28;2082;-78
2021/07/02 03:29:50;;;;;;;;;;;13.80;99.90;;;12.86;100.00;95819.66;10404605;28;2083;-79
2021/07/02 03:34:53;;;;;;;;;;;13.90;99.90;;;12.92;100.00;95817.69;10415055;28;2123;-80
2021/07/02 03:39:56;;;;;;;;;;;13.90;99.90;;;12.97;100.00;95815.72;10419975;28;2067;-77
2021/07/02 03:44:59;;;;;;;;;;;14.00;99.90;;;13.03;100.00;95815.69;10422638;28;1568;-79
2021/07/02 03:50:01;;;;;;;;;;;14.00;99.90;;;13.11;100.00;95815.84;10405718;28;2076;-77
2021/07/02 03:55:04;;;;;;;;;;;14.00;99.90;;;13.20;100.00;95818.72;10418231;28;1315;-76
2021/07/02 04:00:08;;;;;;;;;;;14.10;99.90;;;13.32;100.00;95821.03;10404612;28;2191;-78
2021/07/02 04:05:10;;;;;;;;;;;14.20;99.90;;;13.41;100.00;95822.78;10405203;28;1328;-78
2021/07/02 04:10:16;;;;;;;;;;;14.30;99.90;;;13.48;100.00;95819.72;10414762;28;2226;-78
2021/07/02 04:15:18;;;;;;;;;;;14.40;99.90;;;13.59;100.00;95823.09;10395277;28;2165;-78
2021/07/02 04:20:24;;;;;;;;;;;14.50;99.90;;;13.67;99.67;95827.84;10403082;28;2106;-79
2021/07/02 04:25:46;;;;;;;;;;;14.60;99.90;;;13.80;98.36;95832.50;10405299;28;2068;-77
2021/07/02 04:30:49;;;;;;;;;;;14.70;99.90;;;13.87;97.39;95838.38;10400954;28;2365;-79
2021/07/02 04:35:52;;;;;;;;;;;14.70;99.90;;;13.99;97.60;95843.31;10402862;28;2260;-79
2021/07/02 04:40:55;;;;;;;;;;;14.80;99.90;;;14.18;96.55;95829.78;10390269;28;2278;-77
2021/07/02 04:45:57;;;;;;;;;;;14.90;99.90;;;14.25;95.25;95841.03;10395484;28;2083;-77
2021/07/02 04:51:16;;;;;;;;;;;15.00;99.90;;;14.50;94.76;95842.53;10397313;28;2170;-77
2021/07/02 04:56:19;;;;;;;;;;;15.20;99.90;;;14.56;93.61;95838.66;10400881;28;2027;-80
2021/07/02 05:01:26;;;;;;;;;;;15.40;99.90;;;14.72;93.23;95836.50;10410355;28;2106;-77
2021/07/02 05:06:29;;;;;;;;;;;15.50;99.90;;;14.67;92.00;95823.03;10403922;28;2353;-75
2021/07/02 05:11:31;;;;;;;;;;;15.50;99.90;;;14.91;90.54;95836.41;10399621;28;1626;-79
2021/07/02 05:16:34;;;;;;;;;;;15.60;99.90;;;14.83;89.50;95835.22;10390471;28;1874;-79
2021/07/02 05:21:37;;;;;;;;;;;15.60;99.90;;;15.04;88.93;95839.13;10383876;28;1933;-80
2021/07/02 05:26:42;;;;;;;;;;;15.70;99.90;;;15.09;89.81;95833.63;10412322;28;1901;-77
2021/07/02 05:31:45;;;;;;;;;;;15.80;99.90;;;15.37;87.95;95844.44;10395140;28;1935;-78
2021/07/02 05:36:48;;;;;;;;;;;16.00;99.90;;;15.49;87.47;95843.94;10396905;28;2055;-80
2021/07/02 05:41:51;;;;;;;;;;;16.20;99.90;;;15.67;86.45;95845.75;10413354;28;1920;-78
2021/07/02 05:46:54;;;;;;;;;;;16.30;99.90;;;15.76;85.64;95845.81;10454318;28;1916;-82
2021/07/02 05:51:57;;;;;;;;;;;16.50;99.90;;;15.72;85.91;95863.81;10407078;28;2035;-80
2021/07/02 05:57:00;;;;;;;;;;;16.50;99.90;;;15.90;86.37;95854.72;10407069;28;2287;-78
2021/07/02 06:02:03;;;;;;;;;;;16.50;99.90;;;15.93;83.16;95854.13;10405375;28;1874;-80
2021/07/02 06:07:05;;;;;;;;;;;16.60;99.90;;;15.77;82.84;95863.69;10405514;28;2467;-78
2021/07/02 06:12:09;;;;;;;;;;;16.60;99.90;;;15.88;82.28;95868.59;10403995;28;2024;-77
2021/07/02 06:17:13;;;;;;;;;;;16.50;99.90;;;15.85;83.19;95881.97;10402886;28;1942;-79
2021/07/02 06:22:15;;;;;;;;;;;16.60;99.90;;;16.17;80.30;95881.78;10397228;28;2141;-77
2021/07/02 06:27:18;;;;;;;;;;;16.80;99.90;;;16.39;79.22;95882.88;10405893;28;2094;-78
2021/07/02 06:32:21;;;;;;;;;;;17.00;99.90;;;16.54;77.77;95885.25;10412239;28;1472;-79
2021/07/02 06:37:24;;;;;;;;;;;17.20;99.90;;;16.78;75.21;95890.38;10423668;28;1895;-78
2021/07/02 06:42:26;;;;;;;;;;;17.40;99.90;;;16.68;76.63;95885.97;10435111;28;2186;-79
2021/07/02 06:47:29;;;;;;;;;;;17.40;99.90;;;16.90;75.34;95887.09;10417422;28;1853;-79
2021/07/02 06:52:32;;;;;;;;;;;17.50;99.90;;;17.23;73.18;95890.28;10424157;28;1888;-77
2021/07/02 06:57:35;;;;;;;;;;;17.70;99.90;;;17.25;72.07;95894.31;10437789;28;2066;-82
2021/07/02 07:02:38;;;;;;;;;;;17.80;99.90;;;17.33;71.35;95889.22;10430442;28;1960;-77
2021/07/02 07:07:42;;;;;;;;;;;17.90;99.90;;;17.23;70.91;95885.66;10410590;28;2102;-79
2021/07/02 07:12:48;;;;;;;;;;;17.90;99.90;;;17.64;69.06;95881.81;10425858;28;1913;-79
2021/07/02 07:17:51;;;;;;;;;;;18.10;99.90;;;17.67;67.96;95892.06;10425751;28;2004;-79
2021/07/02 07:22:54;;;;;;;;;;;18.30;99.90;;;18.40;65.90;95902.44;10417183;28;2071;-79
2021/07/02 07:27:57;;;;;;;;;;;18.60;99.90;;;19.04;63.66;95892.47;10416030;28;2214;-81
2021/07/02 07:33:00;;;;;;;;;;;19.00;99.90;;;19.13;61.54;95901.41;10397417;28;2196;-79
2021/07/02 07:38:03;;;;;;;;;;;19.40;99.90;;;18.87;61.61;95893.28;10419509;28;2114;-79
2021/07/02 07:43:06;;;;;;;;;;;19.60;99.90;;;18.81;62.48;95894.56;10437123;28;2008;-79
2021/07/02 07:48:09;;;;;;;;;;;19.40;99.90;;;18.09;61.00;95895.22;10421058;28;2095;-78
2021/07/02 07:53:12;;;;;;;;;;;19.10;99.90;;;18.31;60.64;95899.69;10430860;28;2114;-77
2021/07/02 07:58:15;;;;;;;;;;;18.90;99.90;;;19.10;57.84;95895.81;10417910;28;2063;-77
2021/07/02 08:03:17;;;;;;;;;;;19.20;99.90;;;19.32;56.80;95895.56;10424636;28;2101;-78
2021/07/02 08:08:20;;;;;;;;;;;19.80;99.90;;;19.68;56.42;95905.25;10415970;28;1658;-81
2021/07/02 08:13:27;;;;;;;;;;;20.20;99.90;;;19.31;57.96;95901.34;10426471;28;1850;-79
2021/07/02 08:18:32;;;;;;;;;;;20.20;99.90;;;18.71;60.52;95903.09;10430440;28;2035;-77
2021/07/02 08:23:34;;;;;;;;;;;19.70;99.90;;;18.42;61.31;95908.34;10419195;28;2157;-77
2021/07/02 08:33:58;;;;;;;;;;;19.30;99.90;;;18.99;58.91;95900.00;10430029;28;2492;-80
2021/07/02 08:39:01;;;;;;;;;;;19.50;99.90;;;19.77;55.67;95891.53;10438221;28;2096;-80
2021/07/02 08:44:04;;;;;;;;;;;19.90;99.90;;;20.17;55.08;95892.75;10421952;28;2226;-77
2021/07/02 08:49:06;;;;;;;;;;;20.50;99.90;;;20.81;53.05;95897.09;10422523;28;2088;-77
2021/07/02 08:54:13;;;;;;;;;;;21.00;99.90;;;21.31;51.06;95905.13;10427041;28;2309;-78
2021/07/02 08:59:16;;;;;;;;;;;21.60;99.90;;;21.29;50.53;95898.38;10430574;28;2194;-81
2021/07/02 09:04:19;;;;;;;;;;;21.70;99.90;;;21.69;49.69;95897.72;10454594;28;1378;-81
2021/07/02 09:09:22;;;;;;;;;;;21.90;99.90;;;21.80;48.60;95902.41;10421978;28;1817;-77
2021/07/02 09:14:24;;;;;;;;;;;22.20;99.90;;;20.76;52.33;95894.56;10434785;28;2023;-78
2021/07/02 09:19:28;;;;;;;;;;;22.00;99.90;;;20.99;52.74;95898.50;10407179;28;2048;-81
2021/07/02 09:24:31;;;;;;;;;;;21.60;99.90;;;21.03;50.99;95904.88;10442767;28;2154;-79
2021/07/02 09:29:34;;;;;;;;;;;21.60;99.90;;;20.52;53.67;95887.84;10430094;28;1842;-77
2021/07/02 09:34:37;;;;;;;;;;;21.40;99.90;;;20.83;49.83;95900.25;10422931;28;2019;-79
2021/07/02 09:39:40;;;;;;;;;;;21.50;99.90;;;21.29;47.43;95896.44;10398109;28;2110;-79
2021/07/02 09:44:43;;;;;;;;;;;21.80;99.90;;;21.32;47.22;95884.03;10410119;28;2015;-78
2021/07/02 09:49:46;;;;;;;;;;;21.90;99.90;;;21.67;47.81;95895.34;10430626;28;2075;-82
2021/07/02 09:54:49;;;;;;;;;;;22.30;99.90;;;21.54;48.74;95894.53;10425604;28;2104;-82
2021/07/02 09:59:52;;;;;;;;;;;22.20;99.90;;;22.09;46.13;95895.91;10414024;28;1977;-81
2021/07/02 10:04:54;;;;;;;;;;;22.70;99.90;;;20.67;49.99;95902.81;10428447;28;2274;-82
2021/07/02 10:09:57;;;;;;;;;;;22.00;99.90;;;20.12;51.49;95892.16;10454432;28;1787;-83
2021/07/02 10:15:00;;;;;;;;;;;21.30;99.90;;;19.73;52.10;95901.53;10439223;28;1743;-83
2021/07/02 10:20:03;;;;;;;;;;;20.80;99.90;;;20.27;50.01;95907.13;10452044;28;2281;-83
2021/07/02 10:25:06;;;;;;;;;;;20.90;99.90;;;20.67;49.29;95885.63;10456411;28;1468;-82
2021/07/02 10:30:09;;;;;;;;;;;21.30;99.90;;;21.43;46.06;95890.63;10437625;28;1554;-82
2021/07/02 10:35:11;;;;;;;;;;;21.80;99.90;;;21.24;46.50;95887.63;10459183;28;1973;-84
2021/07/02 10:40:14;;;;;;;;;;;22.20;99.90;;;20.31;46.93;95888.97;10452485;28;1899;-83
2021/07/02 10:45:17;;;;;;;;;;;21.60;99.90;;;21.72;44.65;95895.09;10473761;28;1729;-81
2021/07/02 10:50:25;;;;;;;;;;;22.10;99.90;;;23.76;38.65;95881.72;10462322;28;1903;-83
2021/07/02 10:55:28;;;;;;;;;;;24.40;99.90;;;22.87;42.12;95875.50;10448635;28;1833;-84
2021/07/02 11:00:31;;;;;;;;;;;24.80;99.90;;;22.52;42.85;95888.16;10461634;28;2015;-83
2021/07/02 11:05:34;;;;;;;;;;;24.20;99.90;;;22.73;40.30;95891.53;10445773;28;1910;-82
2021/07/02 11:10:37;;;;;;;;;;;24.80;99.90;;;22.02;41.42;95882.00;10444332;28;1663;-82
2021/07/02 11:15:40;;;;;;;;;;;24.00;99.90;;;22.58;40.95;95882.09;10459525;28;2169;-84
2021/07/02 11:20:43;;;;;;;;;;;24.10;99.90;;;23.10;38.88;95888.66;10454924;28;1890;-82
2021/07/02 11:25:50;;;;;;;;;;;24.70;99.90;;;22.81;40.03;95881.56;10463263;28;2172;-82
2021/07/02 11:30:53;;;;;;;;;;;24.60;99.40;;;23.04;37.93;95874.41;10448993;28;1929;-80
2021/07/02 11:35:56;;;;;;;;;;;24.70;96.80;;;22.20;40.58;95881.75;10447121;28;1914;-84
2021/07/02 11:40:59;;;;;;;;;;;24.10;96.80;;;22.00;41.14;95878.78;10462518;28;1943;-82
2021/07/02 11:46:02;;;;;;;;;;;23.50;97.90;;;21.39;42.37;95876.06;10463317;28;1772;-82
2021/07/02 11:51:05;;;;;;;;;;;22.70;97.90;;;21.30;42.54;95887.09;10446822;28;2060;-83
2021/07/02 11:56:08;;;;;;;;;;;22.40;99.80;;;21.37;41.26;95881.06;10451517;28;1583;-83
2021/07/02 12:01:11;;;;;;;;;;;22.40;97.70;;;21.80;40.32;95898.88;10431017;28;1985;-83
2021/07/02 12:06:14;;;;;;;;;;;22.70;97.30;;;22.77;39.65;95875.16;10416032;28;1750;-81
2021/07/02 12:11:16;;;;;;;;;;;23.20;98.60;;;23.23;36.70;95859.22;10421499;28;2076;-84
2021/07/02 12:16:19;;;;;;;;;;;23.90;94.30;;;22.53;38.04;95867.88;10445568;28;2195;-84
2021/07/02 12:21:28;;;;;;;;;;;23.80;92.20;;;22.19;38.99;95866.47;10406186;28;2094;-81
2021/07/02 12:26:32;;;;;;;;;;;23.40;93.10;;;21.87;39.15;95863.50;10434352;28;2095;-83
2021/07/02 12:31:34;;;;;;;;;;;23.00;91.90;;;21.69;38.88;95853.94;10401067;28;2127;-83
2021/07/02 12:36:37;;;;;;;;;;;23.00;91.20;;;22.34;38.40;95852.84;10405616;28;2293;-83
2021/07/02 12:41:40;;;;;;;;;;;23.20;92.10;;;22.87;37.65;95850.84;10423138;28;2141;-82
2021/07/02 12:46:43;;;;;;;;;;;23.70;91.50;;;23.15;37.49;95839.81;10408237;28;2072;-84
2021/07/02 12:52:00;;;;;;;;;;;24.10;90.90;;;22.37;36.93;95856.84;10420832;28;2079;-85
2021/07/02 12:57:03;;;;;;;;;;;23.90;87.40;;;22.60;38.56;95852.41;10435615;28;1236;-84
2021/07/02 13:02:05;;;;;;;;;;;23.70;89.70;;;22.62;37.38;95857.53;10434151;28;2084;-85
2021/07/02 13:07:08;;;;;;;;;;;23.80;88.60;;;21.96;38.68;95850.53;10428448;28;2075;-85
2021/07/02 13:12:11;;;;;;;;;;;23.40;88.50;;;22.30;38.00;95842.94;10413688;28;2158;-84
2021/07/02 13:17:14;;;;;;;;;;;23.30;88.30;;;22.58;36.38;95846.47;10422520;28;1873;-84
2021/07/02 13:22:17;;;;;;;;;;;23.50;86.90;;;22.54;36.54;95855.75;10421099;28;2080;-85
2021/07/02 13:27:19;;;;;;;;;;;23.50;86.00;;;22.45;36.09;95861.38;10421440;28;2067;-85
2021/07/02 13:32:22;;;;;;;;;;;23.50;84.80;;;22.92;36.33;95856.06;10426021;28;1748;-83
2021/07/02 13:37:25;;;;;;;;;;;23.70;86.00;;;22.46;37.63;95865.72;10443261;28;1794;-82
2021/07/02 13:42:29;;;;;;;;;;;23.60;86.10;;;22.03;38.02;95858.16;10418884;28;2069;-82
2021/07/02 13:47:31;;;;;;;;;;;23.20;85.60;;;22.81;35.23;95854.94;10442210;28;2263;-81
2021/07/02 13:52:36;;;;;;;;;;;23.50;84.20;;;23.66;34.41;95856.38;10430550;28;2071;-83
2021/07/02 13:57:40;;;;;;;;;;;24.10;84.10;;;23.96;34.04;95842.19;10423821;28;2043;-84
2021/07/02 14:02:43;;;;;;;;;;;24.30;82.90;;;24.13;33.02;95850.03;10421263;28;2344;-81
2021/07/02 14:07:46;;;;;;;;;;;24.70;80.90;;;25.25;30.79;95846.41;10414005;28;2050;-83
2021/07/02 14:12:49;;;;;;;;;;;25.40;79.00;;;25.99;29.93;95856.28;10407373;28;1993;-83
2021/07/02 14:17:52;;;;;;;;;;;26.20;77.50;;;25.60;29.86;95848.97;10426011;28;2047;-83
2021/07/02 14:22:55;;;;;;;;;;;26.40;74.90;;;25.05;31.34;95853.09;10417764;28;1964;-83
2021/07/02 14:28:00;;;;;;;;;;;25.80;75.60;;;23.88;33.78;95862.41;10426050;28;1960;-82
2021/07/02 14:33:03;;;;;;;;;;;25.50;76.70;;;22.85;35.54;95871.50;10400684;28;2267;-81
2021/07/02 14:38:06;;;;;;;;;;;24.30;78.40;;;22.61;36.65;95858.69;10421538;28;2239;-83
2021/07/02 14:43:09;;;;;;;;;;;23.70;80.50;;;24.05;33.96;95845.53;10411413;28;2019;-84
2021/07/02 14:48:12;;;;;;;;;;;24.30;79.90;;;23.50;34.73;95857.53;10421180;28;1962;-80
2021/07/02 14:53:15;;;;;;;;;;;24.60;78.50;;;23.90;33.73;95849.09;10453158;28;2394;-84
2021/07/02 14:58:18;;;;;;;;;;;24.70;78.50;;;24.50;34.25;95852.41;10447793;28;2027;-84
2021/07/02 15:03:20;;;;;;;;;;;25.20;78.50;;;23.91;34.10;95845.19;10417871;28;2071;-84
2021/07/02 15:08:23;;;;;;;;;;;25.40;76.60;;;24.22;34.61;95839.63;10406987;28;2053;-83
2021/07/02 15:13:26;;;;;;;;;;;25.30;78.00;;;24.13;35.06;95825.31;10425252;28;2094;-80
2021/07/02 15:18:29;;;;;;;;;;;25.40;77.80;;;23.60;35.12;95841.34;10427280;28;2024;-81
2021/07/02 15:23:31;;;;;;;;;;;25.20;76.90;;;23.28;34.04;95840.53;10430734;28;2278;-79
2021/07/02 15:28:34;;;;;;;;;;;24.60;75.60;;;23.54;34.12;95834.53;10425642;28;2092;-81
2021/07/02 15:33:38;;;;;;;;;;;24.60;75.90;;;23.78;33.96;95822.56;10420404;28;2075;-80
2021/07/02 15:38:41;;;;;;;;;;;24.80;75.70;;;23.63;34.80;95831.63;10421836;28;2071;-80
2021/07/02 15:43:44;;;;;;;;;;;24.80;76.40;;;23.58;33.52;95831.84;10425914;28;1953;-81
2021/07/02 15:48:47;;;;;;;;;;;24.60;75.30;;;23.60;34.18;95833.09;10427975;28;2258;-81
2021/07/02 15:53:50;;;;;;;;;;;24.80;75.60;;;23.64;33.99;95831.25;10435981;28;1954;-79
2021/07/02 15:58:52;;;;;;;;;;;24.60;75.70;;;23.23;34.17;95826.31;10429661;28;2015;-81
2021/07/02 16:03:55;;;;;;;;;;;24.50;74.80;;;23.67;34.62;95825.06;10438250;28;1891;-81
2021/07/02 16:08:58;;;;;;;;;;;24.60;76.00;;;22.56;34.67;95840.56;10420223;28;1996;-82
2021/07/02 16:14:07;;;;;;;;;;;24.10;74.30;;;22.13;37.07;95831.09;10437528;28;2135;-81
2021/07/02 16:19:10;;;;;;;;;;;23.50;76.50;;;22.08;36.64;95839.56;10434717;28;2120;-80
2021/07/02 16:24:13;;;;;;;;;;;23.20;76.90;;;22.51;36.17;95834.53;10422839;28;2147;-79
2021/07/02 16:29:15;;;;;;;;;;;23.30;77.30;;;22.15;36.55;95833.53;10418198;28;2035;-79
2021/07/02 16:34:18;;;;;;;;;;;23.30;76.90;;;21.99;37.86;95838.88;10413102;28;1686;-80
2021/07/02 16:39:21;;;;;;;;;;;23.10;78.20;;;22.01;36.82;95831.13;10419012;28;2161;-80
2021/07/02 16:44:23;;;;;;;;;;;23.00;77.60;;;21.63;37.11;95826.06;10426203;28;2065;-79
2021/07/02 16:49:28;;;;;;;;;;;22.90;77.10;;;21.21;39.96;95836.38;10413352;28;1627;-81
2021/07/02 16:54:30;;;;;;;;;;;22.60;79.60;;;20.95;40.29;95832.00;10427428;28;2038;-81
2021/07/02 16:59:33;;;;;;;;;;;22.20;80.30;;;20.83;41.77;95829.22;10417583;28;2281;-80
2021/07/02 17:04:36;;;;;;;;;;;22.00;82.40;;;20.71;44.88;95838.19;10404045;28;2063;-82
2021/07/02 17:09:41;;;;;;;;;;;21.80;86.60;;;20.39;45.45;95845.22;10419075;28;2102;-81
2021/07/02 17:14:44;;;;;;;;;;;21.60;87.30;;;20.25;46.62;95840.03;10404411;28;2032;-82
2021/07/02 17:19:47;;;;;;;;;;;21.40;88.20;;;20.25;46.92;95841.97;10411132;28;2290;-81
2021/07/02 17:24:50;;;;;;;;;;;21.30;89.50;;;20.19;47.49;95855.00;10405822;28;2163;-80
2021/07/02 17:29:53;;;;;;;;;;;21.20;90.10;;;20.04;48.27;95858.34;10426388;28;2035;-82
2021/07/02 17:34:56;;;;;;;;;;;21.20;91.10;;;19.98;49.32;95865.13;10445190;28;2137;-80
2021/07/02 17:40:00;;;;;;;;;;;21.10;92.40;;;19.86;48.55;95867.75;10420857;28;1989;-83
2021/07/02 17:45:03;;;;;;;;;;;20.90;92.40;;;19.82;47.31;95870.34;10398551;28;1475;-83
2021/07/02 17:50:05;;;;;;;;;;;20.80;91.20;;;19.86;48.89;95868.56;10406899;28;1562;-81
2021/07/02 17:55:08;;;;;;;;;;;20.80;92.80;;;19.67;50.07;95871.72;10410417;28;1448;-84
2021/07/02 18:00:11;;;;;;;;;;;20.80;94.00;;;19.48;51.38;95884.13;10428555;28;1989;-80
2021/07/02 18:05:13;;;;;;;;;;;20.60;95.30;;;19.49;51.09;95883.00;10439031;28;1526;-82
2021/07/02 18:10:16;;;;;;;;;;;20.50;95.80;;;19.36;51.72;95890.28;10430968;28;1245;-81
2021/07/02 18:15:19;;;;;;;;;;;20.40;96.50;;;19.20;50.93;95887.28;10416748;28;1566;-82
2021/07/02 18:20:22;;;;;;;;;;;20.30;95.30;;;19.12;51.72;95896.28;10411278;28;1922;-81
2021/07/02 18:25:24;;;;;;;;;;;20.20;96.20;;;19.13;51.36;95892.44;10409078;28;1267;-82
2021/07/02 18:30:27;;;;;;;;;;;20.20;96.10;;;18.95;53.33;95897.09;10420240;28;1583;-80
2021/07/02 18:35:31;;;;;;;;;;;20.10;98.00;;;18.79;53.62;95893.31;10435246;28;1493;-80
2021/07/02 18:40:33;;;;;;;;;;;19.90;98.70;;;18.66;54.41;95896.97;10432835;28;1922;-83
2021/07/02 18:45:36;;;;;;;;;;;19.80;99.70;;;18.52;54.45;95899.88;10428170;28;1498;-80
2021/07/02 18:50:39;;;;;;;;;;;19.60;99.90;;;18.46;53.58;95903.88;10421217;28;1645;-82
2021/07/02 18:55:42;;;;;;;;;;;19.60;99.20;;;18.40;52.84;95899.72;10434713;28;1576;-83
2021/07/02 19:00:44;;;;;;;;;;;19.50;98.60;;;18.36;52.79;95899.56;10421734;28;1914;-82
2021/07/02 19:05:47;;;;;;;;;;;19.40;98.60;;;18.30;53.19;95904.34;10418589;28;1464;-81
2021/07/02 19:10:50;;;;;;;;;;;19.40;99.20;;;18.26;52.74;95908.84;10434938;28;1354;-82
2021/07/02 19:15:53;;;;;;;;;;;19.30;98.60;;;17.96;53.16;95907.84;10456352;28;1522;-81
2021/07/02 19:20:55;;;;;;;;;;;19.20;98.60;;;17.76;53.68;95914.66;10439785;28;1981;-80
2021/07/02 19:25:58;;;;;;;;;;;19.00;98.90;;;17.54;54.19;95917.44;10437044;28;1709;-81
2021/07/02 19:31:01;;;;;;;;;;;18.80;99.40;;;17.48;53.95;95921.41;10454160;28;1268;-80
2021/07/02 19:36:04;;;;;;;;;;;18.60;99.50;;;17.36;53.95;95927.44;10439624;28;1513;-82
2021/07/02 19:41:07;;;;;;;;;;;18.50;99.70;;;17.23;54.64;95937.28;10418576;28;1910;-82
2021/07/02 19:46:10;;;;;;;;;;;18.40;99.90;;;17.08;54.93;95932.25;10415383;28;1453;-83
2021/07/02 19:51:13;;;;;;;;;;;18.20;99.90;;;16.91;56.03;95940.28;10417852;28;1491;-81
2021/07/02 19:56:16;;;;;;;;;;;18.10;99.90;;;16.75;56.81;95937.94;10400358;28;1764;-83
2021/07/02 20:01:19;;;;;;;;;;;18.00;99.90;;;16.70;56.62;95945.41;10422007;28;1890;-80
2021/07/02 20:06:22;;;;;;;;;;;17.80;99.90;;;16.55;57.38;95941.13;10415497;28;1717;-83
2021/07/02 20:11:25;;;;;;;;;;;17.70;99.90;;;16.35;58.36;95945.13;10412620;28;1511;-83
2021/07/02 20:16:28;;;;;;;;;;;17.60;99.90;;;16.33;57.33;95936.47;10417379;28;1303;-83
2021/07/02 20:21:31;;;;;;;;;;;17.50;99.90;;;16.21;57.61;95941.63;10415359;28;1964;-82
2021/07/02 20:26:34;;;;;;;;;;;17.40;99.90;;;16.15;57.85;95940.91;10388016;28;1229;-82
2021/07/02 20:31:37;;;;;;;;;;;17.40;99.90;;;16.08;57.91;95940.53;10419516;28;1586;-80
2021/07/02 20:36:40;;;;;;;;;;;17.30;99.90;;;15.99;58.14;95939.66;10415108;28;1311;-80
2021/07/02 20:41:43;;;;;;;;;;;17.20;99.90;;;15.96;58.59;95942.97;10409433;28;1910;-80
2021/07/02 20:46:46;;;;;;;;;;;17.10;99.90;;;15.78;59.58;95952.84;10405962;28;1363;-83
2021/07/02 20:51:48;;;;;;;;;;;17.00;99.90;;;15.66;59.69;95952.53;10414299;28;1670;-83
2021/07/02 20:56:51;;;;;;;;;;;16.90;99.90;;;15.66;59.85;95947.91;10415191;28;1603;-82
2021/07/02 21:01:55;;;;;;;;;;;16.80;99.90;;;15.82;59.81;95950.31;10410630;28;1987;-83
2021/07/02 21:06:58;;;;;;;;;;;16.80;99.90;;;15.97;58.73;95944.59;10412917;28;1623;-80
2021/07/02 21:12:00;;;;;;;;;;;16.90;99.90;;;16.13;58.40;95945.06;10434604;28;1327;-80
2021/07/02 21:17:04;;;;;;;;;;;17.00;99.90;;;16.37;56.61;95939.38;10434146;28;1623;-82
2021/07/02 21:22:07;;;;;;;;;;;17.20;99.90;;;16.45;56.79;95941.34;10398067;28;1985;-83
2021/07/02 21:27:10;;;;;;;;;;;17.30;99.90;;;16.50;56.85;95941.25;10417203;28;1156;-84
2021/07/02 21:32:16;;;;;;;;;;;17.40;99.90;;;16.52;56.64;95944.44;10433241;28;1547;-82
2021/07/02 21:37:24;;;;;;;;;;;17.40;99.90;;;16.61;56.47;95941.81;10413469;28;1650;-82
2021/07/02 21:42:27;;;;;;;;;;;17.50;99.90;;;16.64;55.64;95944.69;10405659;28;1886;-82
2021/07/02 21:47:30;;;;;;;;;;;17.50;99.90;;;16.72;55.04;95948.59;10432915;28;2253;-83
2021/07/02 21:52:33;;;;;;;;;;;17.60;99.90;;;16.75;54.84;95943.38;10413832;28;2106;-80
2021/07/02 21:57:36;;;;;;;;;;;17.60;99.90;;;16.85;56.72;95933.38;10435454;28;2321;-81
2021/07/02 22:02:39;;;;;;;;;;;17.70;99.90;;;17.00;57.96;95935.72;10423990;28;2111;-81
2021/07/02 22:07:43;;;;;;;;;;;17.90;99.90;;;16.88;58.19;95925.41;10425997;28;2131;-85
2021/07/02 22:12:46;;;;;;;;;;;17.80;99.90;;;16.82;57.70;95928.56;10429523;28;2183;-80
2021/07/02 22:17:49;;;;;;;;;;;17.80;99.90;;;16.83;58.84;95919.31;10442291;28;2111;-82
2021/07/02 22:22:53;;;;;;;;;;;17.70;99.90;;;16.84;59.08;95924.44;10427791;28;2074;-83
2021/07/02 22:27:56;;;;;;;;;;;17.70;99.90;;;16.75;58.51;95918.94;10408191;28;2055;-84
2021/07/02 22:32:58;;;;;;;;;;;17.70;99.90;;;16.71;58.49;95922.59;10430329;28;2129;-83
2021/07/02 22:38:01;;;;;;;;;;;17.70;99.90;;;16.69;58.88;95919.34;10416162;28;2113;-83
2021/07/02 22:43:03;;;;;;;;;;;17.60;99.90;;;16.69;58.85;95930.22;10421229;28;2094;-83
2021/07/02 22:48:06;;;;;;;;;;;17.60;99.90;;;16.68;59.38;95920.47;10441263;28;2052;-82
2021/07/02 22:53:09;;;;;;;;;;;17.60;99.90;;;16.68;58.89;95921.28;10418050;28;2218;-82
2021/07/02 22:58:12;;;;;;;;;;;17.60;99.90;;;16.58;59.10;95918.78;10385721;28;1985;-81
2021/07/02 23:03:15;;;;;;;;;;;17.50;99.90;;;16.42;60.63;95912.94;10426622;28;1890;-83
2021/07/02 23:08:18;;;;;;;;;;;17.50;99.90;;;16.15;61.66;95916.50;10416762;28;2059;-81
2021/07/02 23:13:20;;;;;;;;;;;17.30;99.90;;;15.96;62.67;95913.13;10423801;28;1388;-83
2021/07/02 23:18:23;;;;;;;;;;;17.20;99.90;;;15.77;64.01;95912.47;10444357;28;2000;-82